Flight Track Log - Related Links

Times and Time Zones

All times are in EDT time to prevent confusion due to time zone crossing. See the TCF5983 flight status page for this flight to view local times or setup timezone preferences in your user account.

Time Position Orientation Groundspeed Altitude Reporting Facility
EDT Latitude Longitude Course Direction KTS MPH feet Rate Location/Type
Thu 05:05:16 PM 42.1994 -83.3581 292° West 150 173 1,400  Level Cleveland Center
Thu 05:06:41 PM 42.1400 -83.4003 208° Southwest 219 252 3,600 2,014 Climbing Cleveland Center
Thu 05:07:36 PM 42.0911 -83.4400 211° Southwest 237 273 6,100 2,741 Climbing Cleveland Center
Thu 05:08:37 PM 42.1139 -83.5308 289° West 281 323 8,900 2,262 Climbing Cleveland Center
Thu 05:09:00 PM 42.3534 -83.9389 292° West  Level FlightAware Approximate
Thu 05:09:38 PM 42.1514 -83.6136 301° West 301 346 10,700  Level Cleveland Center
Thu 05:10:00 PM 42.3882 -84.0550 292° West  Level FlightAware Approximate
Thu 05:10:38 PM 42.1986 -83.7142 302° West 314 361 13,000  Level Cleveland Center
Thu 05:11:38 PM 42.2394 -83.8228 297° West 321 369 15,000 2,100 Climbing Cleveland Center
Thu 05:12:38 PM 42.2717 -83.9339 291° West 321 369 17,200 2,150 Climbing Cleveland Center
Thu 05:13:38 PM 42.3039 -84.0478 291° West 321 369 19,300 1,800 Climbing Cleveland Center
Thu 05:14:38 PM 42.3375 -84.1706 290° West 332 382 20,800 1,700 Climbing Cleveland Center
Thu 05:15:38 PM 42.3733 -84.2933 292° West 343 395 22,700 1,600 Climbing Cleveland Center
Thu 05:16:38 PM 42.4086 -84.4219 290° West 355 409 24,000 1,275 Climbing Cleveland Center
Thu 05:18:51 PM 42.4408 -84.7256 278° West 365 420 26,800 1,262 Climbing Chicago Center
Thu 05:19:53 PM 42.4447 -84.8661 272° West 372 428 28,100 1,258 Climbing Chicago Center
Thu 05:20:55 PM 42.4478 -85.0067 272° West 374 430 29,400 919 Climbing Chicago Center
Thu 05:21:57 PM 42.4508 -85.1472 272° West 374 430 30,000 290 Climbing Chicago Center
Thu 05:22:59 PM 42.4533 -85.2869 271° West 373 429 30,000  Level Chicago Center
Thu 05:24:01 PM 42.4550 -85.4267 271° West 371 427 30,000  Level Chicago Center
Thu 05:25:02 PM 42.4589 -85.5956 272° West 374 430 30,000  Level Chicago Center
Thu 05:26:04 PM 42.4608 -85.7317 271° West 367 422 30,000  Level Chicago Center
Thu 05:27:06 PM 42.4625 -85.8700 271° West 367 422 30,000  Level Chicago Center
Thu 05:28:08 PM 42.4642 -86.0094 271° West 370 426 30,000  Level Chicago Center
Thu 05:29:10 PM 42.4397 -86.1378 256° West 358 412 30,000  Level Chicago Center
Thu 05:30:11 PM 42.3706 -86.2286 224° Southwest 347 399 30,000  Level Chicago Center
Thu 05:31:13 PM 42.3028 -86.3189 225° Southwest 344 396 30,000 290 Level Chicago Center
Thu 05:32:15 PM 42.2292 -86.4139 224° Southwest 346 398 30,600 774 Climbing Chicago Center
Thu 05:33:17 PM 42.1603 -86.5039 224° Southwest 345 397 31,600 677 Climbing Chicago Center
Thu 05:34:19 PM 42.0769 -86.6122 224° Southwest 349 402 32,000 195 Climbing Chicago Center
Thu 05:35:20 PM 42.0069 -86.7008 223° Southwest 347 399 32,000  Level Chicago Center
Thu 05:36:23 PM 41.9367 -86.7889 223° Southwest 346 398 32,000  Level Chicago Center
Thu 05:37:24 PM 41.8667 -86.8792 224° Southwest 350 403 32,000  Level Chicago Center
Thu 05:38:26 PM 41.7967 -86.9683 224° Southwest 349 402 32,000  Level Chicago Center
Thu 05:39:28 PM 41.7272 -87.0589 224° Southwest 349 402 32,000  Level Chicago Center
Thu 05:40:30 PM 41.6439 -87.1650 224° Southwest 347 399 32,000  Level Chicago Center
Thu 05:41:31 PM 41.5728 -87.2542 223° Southwest 351 404 32,000  Level Chicago Center
Thu 05:42:33 PM 41.5017 -87.3436 223° Southwest 352 405 32,000  Level Chicago Center
Thu 05:43:35 PM 41.4311 -87.4331 224° Southwest 352 405 32,000  Level Chicago Center
Thu 05:44:37 PM 41.3606 -87.5214 223° Southwest 349 402 32,000  Level Chicago Center
Thu 05:45:39 PM 41.2889 -87.6111 223° Southwest 352 405 32,000  Level Chicago Center
Thu 05:46:41 PM 41.2178 -87.7008 224° Southwest 352 405 32,000  Level Chicago Center
Thu 05:47:43 PM 41.1314 -87.8061 223° Southwest 350 403 32,000  Level Chicago Center
Thu 05:48:45 PM 41.0586 -87.8953 223° Southwest 355 409 32,000  Level Chicago Center
Thu 05:49:46 PM 40.9869 -87.9850 223° Southwest 354 407 32,000  Level Chicago Center
Thu 05:50:48 PM 40.9150 -88.0742 223° Southwest 355 409 32,000  Level Chicago Center
Thu 05:51:50 PM 40.8419 -88.1631 223° Southwest 359 413 32,000  Level Chicago Center
Thu 05:52:52 PM 40.7689 -88.2533 223° Southwest 360 414 32,000  Level Chicago Center
Thu 05:53:54 PM 40.6794 -88.3597 222° Southwest 362 417 32,000  Level Chicago Center
Thu 05:54:56 PM 40.6072 -88.4478 223° Southwest 356 410 32,000  Level Chicago Center
Thu 05:55:58 PM 40.5342 -88.5333 222° Southwest 352 405 32,000  Level Chicago Center
Thu 05:57:00 PM 40.4622 -88.6203 223° Southwest 354 407 32,000  Level Chicago Center
Thu 05:58:02 PM 40.3956 -88.7017 223° Southwest 353 406 32,000  Level Chicago Center
Thu 05:59:04 PM 40.3078 -88.8061 222° Southwest 353 406 32,000  Level Chicago Center
Thu 06:00:06 PM 40.2358 -88.8936 223° Southwest 353 406 32,000  Level Chicago Center
Thu 06:01:09 PM 40.1633 -88.9783 222° Southwest 350 403 32,000  Level Chicago Center
Thu 06:01:56 PM 40.1039 -89.0467 221° Southwest 348 400 32,000  Level Kansas City Center
Thu 06:02:57 PM 40.0325 -89.1317 222° Southwest 347 399 32,000  Level Kansas City Center
Thu 06:03:58 PM 39.9603 -89.2172 222° Southwest 349 402 32,000  Level Kansas City Center
Thu 06:05:02 PM 39.8883 -89.3019 222° Southwest 347 399 32,000  Level Kansas City Center
Thu 06:06:01 PM 39.8172 -89.3861 222° Southwest 346 398 32,000  Level Kansas City Center
Thu 06:07:05 PM 39.7481 -89.4661 222° Southwest 337 388 32,000  Level Kansas City Center
Thu 06:08:05 PM 39.6747 -89.5519 222° Southwest 334 384 32,000 144 Level Kansas City Center
Thu 06:09:10 PM 39.6103 -89.6339 224° Southwest 329 379 32,300 476 Climbing Kansas City Center
Thu 06:10:11 PM 39.5764 -89.7483 249° West 339 390 33,000 344 Climbing Kansas City Center
Thu 06:11:12 PM 39.5336 -89.8883 248° West 346 398 33,000  Level Kansas City Center
Thu 06:12:15 PM 39.4975 -90.0067 248° West 353 406 33,000  Level Kansas City Center
Thu 06:13:16 PM 39.4633 -90.1203 249° West 346 398 33,000  Level Kansas City Center
Thu 06:14:19 PM 39.4294 -90.2342 249° West 342 394 33,000 290 Level Kansas City Center
Thu 06:15:20 PM 39.3894 -90.3544 247° West 339 390 33,600 484 Climbing Kansas City Center
Thu 06:16:23 PM 39.3239 -90.4522 229° Southwest 330 380 34,000 194 Climbing Kansas City Center
Thu 06:17:24 PM 39.2669 -90.5408 230° Southwest 325 374 34,000  Level Kansas City Center
Thu 06:18:30 PM 39.2100 -90.6278 230° Southwest 323 372 34,000  Level Kansas City Center
Thu 06:19:27 PM 39.1528 -90.7131 229° Southwest 317 365 34,000  Level Kansas City Center
Thu 06:20:29 PM 39.0961 -90.8003 230° Southwest 318 366 34,000  Level Kansas City Center
Thu 06:21:33 PM 39.0264 -90.9053 229° Southwest 322 371 34,000 -144 Level Kansas City Center
Thu 06:22:34 PM 38.9678 -90.9942 230° Southwest 325 374 33,700 -774 Descending Kansas City Center
Thu 06:23:37 PM 38.9075 -91.0847 229° Southwest 332 382 32,400 -823 Descending Kansas City Center
Thu 06:24:38 PM 38.8456 -91.1764 229° Southwest 337 388 32,000 -192 Descending Kansas City Center
Thu 06:25:42 PM 38.7828 -91.2719 230° Southwest 344 396 32,000  Level Kansas City Center
Thu 06:26:43 PM 38.7067 -91.3831 229° Southwest 347 399 32,000  Level Kansas City Center
Thu 06:27:43 PM 38.6461 -91.4744 230° Southwest 340 391 32,000  Level Kansas City Center
Thu 06:28:48 PM 38.5844 -91.5667 229° Southwest 340 391 32,000  Level Kansas City Center
Thu 06:29:48 PM 38.5244 -91.6575 230° Southwest 336 387 32,000  Level Kansas City Center
Thu 06:30:49 PM 38.4622 -91.7469 228° Southwest 335 386 32,000  Level Kansas City Center
Thu 06:31:53 PM 38.4014 -91.8378 229° Southwest 336 387 32,000  Level Kansas City Center
Thu 06:32:54 PM 38.3403 -91.9267 229° Southwest 334 384 32,000  Level Kansas City Center
Thu 06:33:57 PM 38.2672 -92.0331 229° Southwest 332 382 32,000  Level Kansas City Center
Thu 06:34:58 PM 38.2056 -92.1214 228° Southwest 333 383 32,000  Level Kansas City Center
Thu 06:36:02 PM 38.1489 -92.2042 229° Southwest 333 383 32,000  Level Kansas City Center
Thu 06:37:02 PM 38.0875 -92.2919 228° Southwest 335 386 32,000  Level Kansas City Center
Thu 06:38:06 PM 38.0247 -92.3803 228° Southwest 337 388 32,000  Level Kansas City Center
Thu 06:39:07 PM 37.9528 -92.4869 229° Southwest 335 386 32,000  Level Kansas City Center
Thu 06:40:08 PM 37.8922 -92.5739 229° Southwest 333 383 32,000  Level Kansas City Center
Thu 06:41:12 PM 37.8297 -92.6614 228° Southwest 333 383 32,000  Level Kansas City Center
Thu 06:42:13 PM 37.7689 -92.7483 229° Southwest 332 382 32,000  Level Kansas City Center
Thu 06:43:13 PM 37.7086 -92.8369 229° Southwest 329 379 32,000  Level Kansas City Center
Thu 06:44:17 PM 37.6464 -92.9236 228° Southwest 331 381 32,000  Level Kansas City Center
Thu 06:45:18 PM 37.5717 -93.0278 228° Southwest 331 381 32,000  Level Kansas City Center
Thu 06:46:22 PM 37.5106 -93.1150 229° Southwest 330 380 32,000  Level Kansas City Center
Thu 06:47:22 PM 37.4511 -93.2028 230° Southwest 329 379 32,000  Level Kansas City Center
Thu 06:48:23 PM 37.3903 -93.2889 228° Southwest 329 379 32,000  Level Kansas City Center
Thu 06:49:27 PM 37.3325 -93.3767 230° Southwest 327 376 32,000  Level Kansas City Center
Thu 06:50:27 PM 37.2894 -93.4800 242° Southwest 328 377 32,000  Level Kansas City Center
Thu 06:51:31 PM 37.2453 -93.5800 241° Southwest 327 376 32,000  Level Kansas City Center
Thu 06:52:32 PM 37.2000 -93.6794 240° Southwest 327 376 32,000  Level Kansas City Center
Thu 06:53:36 PM 37.1450 -93.7972 240° Southwest 325 374 32,000  Level Kansas City Center
Thu 06:54:37 PM 37.1061 -93.8836 241° Southwest 325 374 32,000  Level Kansas City Center
Thu 06:55:38 PM 37.0519 -94.0017 240° Southwest 325 374 32,000  Level Kansas City Center
Thu 06:56:39 PM 37.0067 -94.0981 240° Southwest 322 371 32,000  Level Kansas City Center
Thu 06:57:43 PM 36.9608 -94.1947 239° Southwest 321 369 32,000  Level Kansas City Center
Thu 06:58:45 PM 36.9147 -94.2897 239° Southwest 320 368 32,000  Level Kansas City Center
Thu 06:59:45 PM 36.8683 -94.3844 239° Southwest 319 367 32,000  Level Kansas City Center
Thu 07:00:47 PM 36.8244 -94.4800 240° Southwest 318 366 32,000  Level Kansas City Center
Thu 07:01:50 PM 36.7797 -94.5744 239° Southwest 316 364 32,000  Level Kansas City Center
Thu 07:02:52 PM 36.7261 -94.6869 239° Southwest 314 361 32,000  Level Kansas City Center
Thu 07:03:53 PM 36.6822 -94.7817 240° Southwest 314 361 32,000  Level Kansas City Center
Thu 07:04:56 PM 36.6383 -94.8750 240° Southwest 314 361 32,000  Level Kansas City Center
Thu 07:05:56 PM 36.5936 -94.9678 239° Southwest 312 359 32,000  Level Kansas City Center
Thu 07:07:00 PM 36.5486 -95.0608 239° Southwest 312 359 32,000  Level Kansas City Center
Thu 07:08:00 PM 36.5008 -95.1617 240° Southwest 308 354 32,000  Level Kansas City Center
Thu 07:09:04 PM 36.4569 -95.2522 239° Southwest 307 353 32,000  Level Kansas City Center
Thu 07:10:05 PM 36.4131 -95.3425 239° Southwest 306 352 32,000  Level Kansas City Center
Thu 07:11:07 PM 36.3692 -95.4317 239° Southwest 305 351 32,000  Level Kansas City Center
Thu 07:12:09 PM 36.3236 -95.5214 238° Southwest 306 352 32,000  Level Kansas City Center
Thu 07:13:10 PM 36.2803 -95.6125 239° Southwest 307 353 32,000  Level Kansas City Center
Thu 07:14:14 PM 36.2272 -95.7211 239° Southwest 307 353 32,000  Level Kansas City Center
Thu 07:15:15 PM 36.1447 -95.7631 202° Southwest 314 361 32,000  Level Kansas City Center
Thu 07:16:16 PM 36.0478 -95.7392 169° South 352 405 32,000  Level Kansas City Center
Thu 07:17:19 PM 35.9497 -95.7069 165° South 360 414 32,000  Level Kansas City Center
Thu 07:18:20 PM 35.8508 -95.6750 165° South 364 419 32,000 -145 Level Kansas City Center
Thu 07:19:23 PM 35.7508 -95.6431 165° South 367 422 31,700 -480 Descending Kansas City Center
Thu 07:20:25 PM 35.6308 -95.6039 165° South 370 426 31,000 -341 Descending Kansas City Center
Thu 07:21:26 PM 35.5328 -95.5714 165° South 368 423 31,000  Level Kansas City Center
Thu 07:22:30 PM 35.4331 -95.5394 165° South 368 423 31,000  Level Kansas City Center
Thu 07:23:27 PM 35.3272 -95.5053 165° South 376 433 31,000  Level Fort Worth Center
Thu 07:24:27 PM 35.2286 -95.4769 167° South 376 433 31,000  Level Fort Worth Center
Thu 07:25:27 PM 35.1281 -95.4461 166° South 376 433 31,000  Level Fort Worth Center
Thu 07:26:27 PM 35.0253 -95.4156 166° South 376 433 31,000  Level Fort Worth Center
Thu 07:27:27 PM 34.9269 -95.3825 165° South 376 433 31,000  Level Fort Worth Center
Thu 07:28:27 PM 34.8261 -95.3519 166° South 376 433 31,000  Level Fort Worth Center
Thu 07:29:27 PM 34.7256 -95.3192 165° South 376 433 31,000  Level Fort Worth Center
Thu 07:30:27 PM 34.6250 -95.2939 168° South 376 433 31,000 -300 Level Fort Worth Center
Thu 07:31:27 PM 34.5222 -95.2686 169° South 376 433 30,400 -800 Descending Fort Worth Center
Thu 07:32:27 PM 34.4353 -95.3011 197° South 327 376 29,400 -1,000 Descending Fort Worth Center
Thu 07:33:27 PM 34.3656 -95.3731 220° Southwest 322 371 28,400 -1,050 Descending Fort Worth Center
Thu 07:34:27 PM 34.2997 -95.4425 221° Southwest 319 367 27,300 -1,050 Descending Fort Worth Center
Thu 07:35:27 PM 34.2403 -95.5017 219° Southwest 302 348 26,300 -950 Descending Fort Worth Center
Thu 07:36:27 PM 34.1744 -95.5708 221° Southwest 299 344 25,400 -950 Descending Fort Worth Center
Thu 07:37:27 PM 34.1047 -95.6450 221° Southwest 318 366 24,400 -700 Descending Fort Worth Center
Thu 07:38:27 PM 34.0511 -95.7064 224° Southwest 310 357 24,000 -200 Descending Fort Worth Center
Thu 07:39:27 PM 33.9833 -95.7753 220° Southwest 310 357 24,000  Level Fort Worth Center
Thu 07:40:27 PM 33.9175 -95.8467 222° Southwest 321 369 24,000  Level Fort Worth Center
Thu 07:41:27 PM 33.8514 -95.9153 221° Southwest 321 369 24,000  Level Fort Worth Center
Thu 07:42:27 PM 33.7814 -95.9864 220° Southwest 326 375 24,000 -100 Level Fort Worth Center
Thu 07:43:27 PM 33.7153 -96.0550 221° Southwest 331 381 23,800 -1,000 Descending Fort Worth Center
Thu 07:44:27 PM 33.6389 -96.1311 220° Southwest 331 381 22,000 -1,600 Descending Fort Worth Center
Thu 07:45:27 PM 33.5728 -96.1994 221° Southwest 331 381 20,600 -1,550 Descending Fort Worth Center
Thu 07:46:27 PM 33.5128 -96.2675 223° Southwest 319 367 18,900 -1,600 Descending Fort Worth Center
Thu 07:47:27 PM 33.4508 -96.3378 223° Southwest 314 361 17,400 -1,450 Descending Fort Worth Center
Thu 07:48:27 PM 33.3992 -96.4008 226° Southwest 302 348 16,000 -1,450 Descending Fort Worth Center
Thu 07:49:27 PM 33.3392 -96.4736 225° Southwest 297 342 14,500 -1,400 Descending Fort Worth Center
Thu 07:50:27 PM 33.2894 -96.5336 225° Southwest 292 336 13,200 -1,350 Descending Fort Worth Center
Thu 07:51:27 PM 33.2378 -96.5939 224° Southwest 280 322 11,800 -1,100 Descending Fort Worth Center
Thu 07:52:27 PM 33.1839 -96.6589 225° Southwest 258 297 11,000 -400 Descending Fort Worth Center
Thu 07:53:27 PM 33.1425 -96.7089 225° Southwest 246 283 11,000  Level Fort Worth Center
Thu 07:54:27 PM 33.0886 -96.7714 224° Southwest 246 283 11,000  Level Fort Worth Center
Thu 07:55:27 PM 33.0469 -96.8211 225° Southwest 230 265 11,000  Level Fort Worth Center
Thu 07:56:27 PM 33.0097 -96.8633 224° Southwest 204 235 11,000 -49 Level Fort Worth Center
Thu 07:57:30 PM 32.9667 -96.9000 216° Southwest 204 235 10,900 -1,366 Descending Dallas / Fort Worth TRACON
Thu 07:58:30 PM 32.9000 -96.9000 180° South 254 292 8,200 -2,231 Descending Dallas / Fort Worth TRACON
Thu 07:59:31 PM 32.8333 -96.9000 180° South 255 293 6,400 -1,091 Descending Dallas / Fort Worth TRACON
Thu 08:00:31 PM 32.7667 -96.9000 180° South 254 292 6,000 -1,150 Descending Dallas / Fort Worth TRACON
Thu 08:01:31 PM 32.7167 -96.9500 220° Southwest 224 258 4,100 -1,750 Descending Dallas / Fort Worth TRACON
Thu 08:02:31 PM 32.7333 -97.0000 292° West 196 226 2,500 -942 Descending Dallas / Fort Worth TRACON
Thu 08:03:32 PM 32.7833 -97.0167 344° North 159 183 2,200 -347 Descending Dallas / Fort Worth TRACON
Thu 08:04:32 PM 32.8167 -97.0333 337° Northwest 144 166 1,800 -400 Descending Dallas / Fort Worth TRACON

Login

Don't have an account? Register now (free) for customized features, flight alerts, and more!